sensor_id;sensor_type;location;lat;lon;timestamp;temperature;humidity
71801;HTU21D;59647;55.838;37.292;2022-08-19T00:01:38;22.91;61.73
71801;HTU21D;59647;55.838;37.292;2022-08-19T00:04:07;22.93;62.97
71801;HTU21D;59647;55.838;37.292;2022-08-19T00:06:35;22.93;61.99
71801;HTU21D;59647;55.838;37.292;2022-08-19T00:09:03;22.93;62.61
71801;HTU21D;59647;55.838;37.292;2022-08-19T00:11:29;22.93;61.86
71801;HTU21D;59647;55.838;37.292;2022-08-19T00:13:55;22.92;62.06
71801;HTU21D;59647;55.838;37.292;2022-08-19T00:16:22;22.90;61.76
71801;HTU21D;59647;55.838;37.292;2022-08-19T00:18:49;22.94;61.67
71801;HTU21D;59647;55.838;37.292;2022-08-19T00:21:15;22.92;62.03
71801;HTU21D;59647;55.838;37.292;2022-08-19T00:23:41;22.93;61.82
71801;HTU21D;59647;55.838;37.292;2022-08-19T00:26:09;22.90;63.31
71801;HTU21D;59647;55.838;37.292;2022-08-19T00:28:36;22.90;62.16
71801;HTU21D;59647;55.838;37.292;2022-08-19T00:31:06;22.88;62.81
71801;HTU21D;59647;55.838;37.292;2022-08-19T00:33:33;22.86;63.05
71801;HTU21D;59647;55.838;37.292;2022-08-19T00:36:00;22.83;63.37
71801;HTU21D;59647;55.838;37.292;2022-08-19T00:38:26;22.79;63.24
71801;HTU21D;59647;55.838;37.292;2022-08-19T00:40:52;22.81;62.73
71801;HTU21D;59647;55.838;37.292;2022-08-19T00:43:21;22.75;64.31
71801;HTU21D;59647;55.838;37.292;2022-08-19T00:45:47;22.71;63.77
71801;HTU21D;59647;55.838;37.292;2022-08-19T00:48:14;22.66;64.52
71801;HTU21D;59647;55.838;37.292;2022-08-19T00:50:41;22.66;64.80
71801;HTU21D;59647;55.838;37.292;2022-08-19T00:53:10;22.62;64.69
71801;HTU21D;59647;55.838;37.292;2022-08-19T00:55:37;22.57;65.70
71801;HTU21D;59647;55.838;37.292;2022-08-19T00:58:10;22.53;63.98
71801;HTU21D;59647;55.838;37.292;2022-08-19T01:00:37;22.53;63.89
71801;HTU21D;59647;55.838;37.292;2022-08-19T01:03:09;22.54;64.22
71801;HTU21D;59647;55.838;37.292;2022-08-19T01:05:36;22.54;63.69
71801;HTU21D;59647;55.838;37.292;2022-08-19T01:08:04;22.53;64.19
71801;HTU21D;59647;55.838;37.292;2022-08-19T01:10:35;22.48;64.07
71801;HTU21D;59647;55.838;37.292;2022-08-19T01:13:03;22.44;64.25
71801;HTU21D;59647;55.838;37.292;2022-08-19T01:15:32;22.39;64.27
71801;HTU21D;59647;55.838;37.292;2022-08-19T01:18:02;22.39;63.89
71801;HTU21D;59647;55.838;37.292;2022-08-19T01:20:29;22.34;64.07
71801;HTU21D;59647;55.838;37.292;2022-08-19T01:22:57;22.31;64.03
71801;HTU21D;59647;55.838;37.292;2022-08-19T01:25:29;22.25;64.79
71801;HTU21D;59647;55.838;37.292;2022-08-19T01:27:56;22.23;63.92
71801;HTU21D;59647;55.838;37.292;2022-08-19T01:30:30;22.19;64.57
71801;HTU21D;59647;55.838;37.292;2022-08-19T01:32:57;22.18;63.88
71801;HTU21D;59647;55.838;37.292;2022-08-19T01:35:25;22.12;64.66
71801;HTU21D;59647;55.838;37.292;2022-08-19T01:37:56;22.06;65.37
71801;HTU21D;59647;55.838;37.292;2022-08-19T01:40:25;22.02;65.43
71801;HTU21D;59647;55.838;37.292;2022-08-19T01:42:52;21.96;64.59
71801;HTU21D;59647;55.838;37.292;2022-08-19T01:45:19;21.92;65.53
71801;HTU21D;59647;55.838;37.292;2022-08-19T01:47:47;21.87;66.75
71801;HTU21D;59647;55.838;37.292;2022-08-19T01:50:13;21.80;64.97
71801;HTU21D;59647;55.838;37.292;2022-08-19T01:52:40;21.77;66.65
71801;HTU21D;59647;55.838;37.292;2022-08-19T01:55:11;21.75;66.25
71801;HTU21D;59647;55.838;37.292;2022-08-19T01:57:37;21.73;65.68
71801;HTU21D;59647;55.838;37.292;2022-08-19T02:00:08;21.67;66.04
71801;HTU21D;59647;55.838;37.292;2022-08-19T02:02:37;21.64;67.40
71801;HTU21D;59647;55.838;37.292;2022-08-19T02:05:04;21.62;66.10
71801;HTU21D;59647;55.838;37.292;2022-08-19T02:07:29;21.64;65.38
71801;HTU21D;59647;55.838;37.292;2022-08-19T02:09:55;21.61;65.46
71801;HTU21D;59647;55.838;37.292;2022-08-19T02:12:21;21.55;65.73
71801;HTU21D;59647;55.838;37.292;2022-08-19T02:14:47;21.58;65.33
71801;HTU21D;59647;55.838;37.292;2022-08-19T02:17:13;21.55;65.97
71801;HTU21D;59647;55.838;37.292;2022-08-19T02:19:39;21.53;65.42
71801;HTU21D;59647;55.838;37.292;2022-08-19T02:22:06;21.53;65.39
71801;HTU21D;59647;55.838;37.292;2022-08-19T02:24:31;21.52;65.37
71801;HTU21D;59647;55.838;37.292;2022-08-19T02:26:57;21.49;65.35
71801;HTU21D;59647;55.838;37.292;2022-08-19T02:29:24;21.47;67.15
71801;HTU21D;59647;55.838;37.292;2022-08-19T02:31:50;21.48;65.59
71801;HTU21D;59647;55.838;37.292;2022-08-19T02:34:16;21.44;65.75
71801;HTU21D;59647;55.838;37.292;2022-08-19T02:36:42;21.35;66.40
71801;HTU21D;59647;55.838;37.292;2022-08-19T02:39:09;21.28;66.36
71801;HTU21D;59647;55.838;37.292;2022-08-19T02:41:35;21.25;67.57
71801;HTU21D;59647;55.838;37.292;2022-08-19T02:44:02;21.18;68.10
71801;HTU21D;59647;55.838;37.292;2022-08-19T02:46:31;21.16;67.33
71801;HTU21D;59647;55.838;37.292;2022-08-19T02:49:00;21.18;67.39
71801;HTU21D;59647;55.838;37.292;2022-08-19T02:51:33;21.17;68.07
71801;HTU21D;59647;55.838;37.292;2022-08-19T02:53:59;21.14;67.91
71801;HTU21D;59647;55.838;37.292;2022-08-19T02:56:25;21.14;69.15
71801;HTU21D;59647;55.838;37.292;2022-08-19T02:58:54;21.16;67.93
71801;HTU21D;59647;55.838;37.292;2022-08-19T03:01:23;21.14;68.26
71801;HTU21D;59647;55.838;37.292;2022-08-19T03:03:50;21.11;68.26
71801;HTU21D;59647;55.838;37.292;2022-08-19T03:06:16;21.10;69.07
71801;HTU21D;59647;55.838;37.292;2022-08-19T03:08:45;21.09;68.26
71801;HTU21D;59647;55.838;37.292;2022-08-19T03:11:20;21.10;69.43
71801;HTU21D;59647;55.838;37.292;2022-08-19T03:13:46;21.11;68.11
71801;HTU21D;59647;55.838;37.292;2022-08-19T03:16:15;21.07;69.94
71801;HTU21D;59647;55.838;37.292;2022-08-19T03:18:41;21.11;69.19
71801;HTU21D;59647;55.838;37.292;2022-08-19T03:21:07;21.17;68.81
71801;HTU21D;59647;55.838;37.292;2022-08-19T03:23:34;21.20;68.77
71801;HTU21D;59647;55.838;37.292;2022-08-19T03:26:03;21.25;71.43
71801;HTU21D;59647;55.838;37.292;2022-08-19T03:28:30;21.27;68.32
71801;HTU21D;59647;55.838;37.292;2022-08-19T03:31:03;21.31;69.29
71801;HTU21D;59647;55.838;37.292;2022-08-19T03:33:30;21.35;69.02
71801;HTU21D;59647;55.838;37.292;2022-08-19T03:36:14;21.39;68.85
71801;HTU21D;59647;55.838;37.292;2022-08-19T03:38:43;21.43;69.58
71801;HTU21D;59647;55.838;37.292;2022-08-19T03:41:11;21.45;69.02
71801;HTU21D;59647;55.838;37.292;2022-08-19T03:43:39;21.47;68.91
71801;HTU21D;59647;55.838;37.292;2022-08-19T03:46:09;21.52;69.35
71801;HTU21D;59647;55.838;37.292;2022-08-19T03:48:37;21.59;68.84
71801;HTU21D;59647;55.838;37.292;2022-08-19T03:51:04;21.61;68.66
71801;HTU21D;59647;55.838;37.292;2022-08-19T03:53:31;21.64;68.53
71801;HTU21D;59647;55.838;37.292;2022-08-19T03:55:57;21.68;70.23
71801;HTU21D;59647;55.838;37.292;2022-08-19T03:58:26;21.73;68.99
71801;HTU21D;59647;55.838;37.292;2022-08-19T04:00:57;21.76;68.71
71801;HTU21D;59647;55.838;37.292;2022-08-19T04:03:24;21.79;68.72
71801;HTU21D;59647;55.838;37.292;2022-08-19T04:05:50;21.83;68.49
71801;HTU21D;59647;55.838;37.292;2022-08-19T04:08:16;21.85;68.36
71801;HTU21D;59647;55.838;37.292;2022-08-19T04:10:47;21.90;69.11
71801;HTU21D;59647;55.838;37.292;2022-08-19T04:13:16;21.92;69.56
71801;HTU21D;59647;55.838;37.292;2022-08-19T04:15:45;21.94;68.39
71801;HTU21D;59647;55.838;37.292;2022-08-19T04:18:12;21.97;68.23
71801;HTU21D;59647;55.838;37.292;2022-08-19T04:20:44;22.01;70.03
71801;HTU21D;59647;55.838;37.292;2022-08-19T04:23:12;22.04;68.33
71801;HTU21D;59647;55.838;37.292;2022-08-19T04:25:41;22.09;69.04
71801;HTU21D;59647;55.838;37.292;2022-08-19T04:28:08;22.16;68.68
71801;HTU21D;59647;55.838;37.292;2022-08-19T04:30:51;22.20;68.57
71801;HTU21D;59647;55.838;37.292;2022-08-19T04:33:19;22.26;67.67
71801;HTU21D;59647;55.838;37.292;2022-08-19T04:35:47;22.26;67.55
71801;HTU21D;59647;55.838;37.292;2022-08-19T04:38:15;22.31;67.50
71801;HTU21D;59647;55.838;37.292;2022-08-19T04:40:43;22.33;67.52
71801;HTU21D;59647;55.838;37.292;2022-08-19T04:43:28;22.38;67.75
71801;HTU21D;59647;55.838;37.292;2022-08-19T04:45:54;22.38;70.93
71801;HTU21D;59647;55.838;37.292;2022-08-19T04:48:20;22.42;68.35
71801;HTU21D;59647;55.838;37.292;2022-08-19T04:50:55;22.46;68.21
71801;HTU21D;59647;55.838;37.292;2022-08-19T04:53:28;22.47;68.53
71801;HTU21D;59647;55.838;37.292;2022-08-19T04:55:56;22.53;68.62
71801;HTU21D;59647;55.838;37.292;2022-08-19T04:58:24;22.66;67.34
71801;HTU21D;59647;55.838;37.292;2022-08-19T05:00:50;22.72;67.20
71801;HTU21D;59647;55.838;37.292;2022-08-19T05:03:16;22.81;67.07
71801;HTU21D;59647;55.838;37.292;2022-08-19T05:05:44;22.94;67.09
71801;HTU21D;59647;55.838;37.292;2022-08-19T05:08:11;23.03;67.48
71801;HTU21D;59647;55.838;37.292;2022-08-19T05:10:38;23.10;67.10
71801;HTU21D;59647;55.838;37.292;2022-08-19T05:13:04;23.11;66.40
71801;HTU21D;59647;55.838;37.292;2022-08-19T05:15:31;23.16;66.75
71801;HTU21D;59647;55.838;37.292;2022-08-19T05:17:57;23.21;66.75
71801;HTU21D;59647;55.838;37.292;2022-08-19T05:20:41;23.25;66.37
71801;HTU21D;59647;55.838;37.292;2022-08-19T05:23:26;23.29;66.47
71801;HTU21D;59647;55.838;37.292;2022-08-19T05:25:52;23.40;66.18
71801;HTU21D;59647;55.838;37.292;2022-08-19T05:28:19;23.55;65.88
71801;HTU21D;59647;55.838;37.292;2022-08-19T05:30:46;23.62;65.80
71801;HTU21D;59647;55.838;37.292;2022-08-19T05:33:13;23.67;65.42
71801;HTU21D;59647;55.838;37.292;2022-08-19T05:35:39;23.71;65.20
71801;HTU21D;59647;55.838;37.292;2022-08-19T05:38:06;23.69;65.33
71801;HTU21D;59647;55.838;37.292;2022-08-19T05:40:36;23.79;65.31
71801;HTU21D;59647;55.838;37.292;2022-08-19T05:43:04;23.99;65.21
71801;HTU21D;59647;55.838;37.292;2022-08-19T05:45:30;24.16;64.95
71801;HTU21D;59647;55.838;37.292;2022-08-19T05:47:56;24.26;64.68
71801;HTU21D;59647;55.838;37.292;2022-08-19T05:50:24;24.29;64.55
71801;HTU21D;59647;55.838;37.292;2022-08-19T05:52:52;24.35;64.54
71801;HTU21D;59647;55.838;37.292;2022-08-19T05:55:18;24.41;64.40
71801;HTU21D;59647;55.838;37.292;2022-08-19T05:57:46;24.31;64.22
71801;HTU21D;59647;55.838;37.292;2022-08-19T06:00:12;24.31;64.13
71801;HTU21D;59647;55.838;37.292;2022-08-19T06:02:39;24.20;64.23
71801;HTU21D;59647;55.838;37.292;2022-08-19T06:05:06;24.28;64.57
71801;HTU21D;59647;55.838;37.292;2022-08-19T06:07:38;24.35;64.38
71801;HTU21D;59647;55.838;37.292;2022-08-19T06:10:06;24.36;64.14
71801;HTU21D;59647;55.838;37.292;2022-08-19T06:12:34;24.38;63.97
71801;HTU21D;59647;55.838;37.292;2022-08-19T06:15:08;24.40;64.11
71801;HTU21D;59647;55.838;37.292;2022-08-19T06:17:34;24.45;64.34
71801;HTU21D;59647;55.838;37.292;2022-08-19T06:20:03;24.48;64.11
71801;HTU21D;59647;55.838;37.292;2022-08-19T06:22:29;24.51;63.95
71801;HTU21D;59647;55.838;37.292;2022-08-19T06:24:55;24.48;64.20
71801;HTU21D;59647;55.838;37.292;2022-08-19T06:27:22;24.42;64.26
71801;HTU21D;59647;55.838;37.292;2022-08-19T06:29:48;24.39;64.42
71801;HTU21D;59647;55.838;37.292;2022-08-19T06:32:15;24.43;64.40
71801;HTU21D;59647;55.838;37.292;2022-08-19T06:34:42;24.45;64.09
71801;HTU21D;59647;55.838;37.292;2022-08-19T06:37:08;24.44;64.00
71801;HTU21D;59647;55.838;37.292;2022-08-19T06:39:38;24.46;64.14
71801;HTU21D;59647;55.838;37.292;2022-08-19T06:42:05;24.49;63.88
71801;HTU21D;59647;55.838;37.292;2022-08-19T06:44:35;24.51;64.23
71801;HTU21D;59647;55.838;37.292;2022-08-19T06:47:07;24.58;64.19
71801;HTU21D;59647;55.838;37.292;2022-08-19T06:49:34;24.68;63.98
71801;HTU21D;59647;55.838;37.292;2022-08-19T06:52:01;24.73;64.18
71801;HTU21D;59647;55.838;37.292;2022-08-19T06:54:27;24.78;63.94
71801;HTU21D;59647;55.838;37.292;2022-08-19T06:56:55;24.80;64.37
71801;HTU21D;59647;55.838;37.292;2022-08-19T06:59:23;24.83;64.37
71801;HTU21D;59647;55.838;37.292;2022-08-19T07:01:54;24.76;64.41
71801;HTU21D;59647;55.838;37.292;2022-08-19T07:04:23;24.76;65.55
71801;HTU21D;59647;55.838;37.292;2022-08-19T07:07:01;24.77;65.98
71801;HTU21D;59647;55.838;37.292;2022-08-19T07:09:28;24.85;64.79
71801;HTU21D;59647;55.838;37.292;2022-08-19T07:11:55;24.87;64.76
71801;HTU21D;59647;55.838;37.292;2022-08-19T07:14:26;24.89;64.77
71801;HTU21D;59647;55.838;37.292;2022-08-19T07:16:55;24.90;66.82
71801;HTU21D;59647;55.838;37.292;2022-08-19T07:19:24;24.95;65.26
71801;HTU21D;59647;55.838;37.292;2022-08-19T07:21:53;24.99;64.88
71801;HTU21D;59647;55.838;37.292;2022-08-19T07:24:20;25.08;64.89
71801;HTU21D;59647;55.838;37.292;2022-08-19T07:26:51;25.21;65.06
71801;HTU21D;59647;55.838;37.292;2022-08-19T07:29:18;25.30;64.96
71801;HTU21D;59647;55.838;37.292;2022-08-19T07:31:44;25.33;64.20
71801;HTU21D;59647;55.838;37.292;2022-08-19T07:34:11;25.32;64.17
71801;HTU21D;59647;55.838;37.292;2022-08-19T07:36:40;25.36;63.86
71801;HTU21D;59647;55.838;37.292;2022-08-19T07:39:10;25.30;64.39
71801;HTU21D;59647;55.838;37.292;2022-08-19T07:41:37;25.22;64.72
71801;HTU21D;59647;55.838;37.292;2022-08-19T07:44:05;25.24;64.48
71801;HTU21D;59647;55.838;37.292;2022-08-19T07:46:34;25.23;64.34
71801;HTU21D;59647;55.838;37.292;2022-08-19T07:49:01;25.33;64.72
71801;HTU21D;59647;55.838;37.292;2022-08-19T07:51:27;25.43;64.59
71801;HTU21D;59647;55.838;37.292;2022-08-19T07:53:54;25.53;64.60
71801;HTU21D;59647;55.838;37.292;2022-08-19T07:56:21;25.65;63.95
71801;HTU21D;59647;55.838;37.292;2022-08-19T07:58:49;25.74;63.67
71801;HTU21D;59647;55.838;37.292;2022-08-19T08:01:20;25.86;63.51
71801;HTU21D;59647;55.838;37.292;2022-08-19T08:03:47;26.02;62.59
71801;HTU21D;59647;55.838;37.292;2022-08-19T08:06:32;26.32;62.32
71801;HTU21D;59647;55.838;37.292;2022-08-19T08:09:22;26.54;60.60
71801;HTU21D;59647;55.838;37.292;2022-08-19T08:11:50;26.83;60.35
71801;HTU21D;59647;55.838;37.292;2022-08-19T08:14:20;27.01;59.97
71801;HTU21D;59647;55.838;37.292;2022-08-19T08:16:48;27.22;59.33
71801;HTU21D;59647;55.838;37.292;2022-08-19T08:19:16;27.51;58.48
71801;HTU21D;59647;55.838;37.292;2022-08-19T08:21:43;27.71;57.96
71801;HTU21D;59647;55.838;37.292;2022-08-19T08:24:09;27.75;56.84
71801;HTU21D;59647;55.838;37.292;2022-08-19T08:26:36;27.79;55.55
71801;HTU21D;59647;55.838;37.292;2022-08-19T08:29:02;27.81;54.44
71801;HTU21D;59647;55.838;37.292;2022-08-19T08:31:28;27.94;47.56
71801;HTU21D;59647;55.838;37.292;2022-08-19T08:33:54;28.02;54.39
71801;HTU21D;59647;55.838;37.292;2022-08-19T08:36:20;28.15;54.81
71801;HTU21D;59647;55.838;37.292;2022-08-19T08:38:46;27.94;50.31
71801;HTU21D;59647;55.838;37.292;2022-08-19T08:43:55;27.68;51.99
71801;HTU21D;59647;55.838;37.292;2022-08-19T08:46:36;27.67;49.20
71801;HTU21D;59647;55.838;37.292;2022-08-19T08:52:21;27.73;47.38
71801;HTU21D;59647;55.838;37.292;2022-08-19T08:54:51;27.94;47.82
71801;HTU21D;59647;55.838;37.292;2022-08-19T08:58:12;28.18;49.93
71801;HTU21D;59647;55.838;37.292;2022-08-19T09:00:30;28.25;49.49
71801;HTU21D;59647;55.838;37.292;2022-08-19T09:02:57;28.31;49.76
71801;HTU21D;59647;55.838;37.292;2022-08-19T09:05:30;28.44;48.94
71801;HTU21D;59647;55.838;37.292;2022-08-19T09:08:08;28.45;49.30
71801;HTU21D;59647;55.838;37.292;2022-08-19T09:10:44;28.49;48.30
71801;HTU21D;59647;55.838;37.292;2022-08-19T09:13:34;28.43;48.92
71801;HTU21D;59647;55.838;37.292;2022-08-19T09:16:21;28.39;48.41
71801;HTU21D;59647;55.838;37.292;2022-08-19T09:18:57;28.48;50.19
71801;HTU21D;59647;55.838;37.292;2022-08-19T09:21:25;28.73;50.97
71801;HTU21D;59647;55.838;37.292;2022-08-19T09:23:53;29.12;50.65
71801;HTU21D;59647;55.838;37.292;2022-08-19T09:26:21;29.32;49.03
71801;HTU21D;59647;55.838;37.292;2022-08-19T09:28:49;29.46;49.64
71801;HTU21D;59647;55.838;37.292;2022-08-19T09:31:24;29.59;45.68
71801;HTU21D;59647;55.838;37.292;2022-08-19T09:33:51;29.52;48.09
71801;HTU21D;59647;55.838;37.292;2022-08-19T09:36:20;29.57;45.65
71801;HTU21D;59647;55.838;37.292;2022-08-19T09:38:47;29.53;48.25
71801;HTU21D;59647;55.838;37.292;2022-08-19T09:41:19;29.48;47.01
71801;HTU21D;59647;55.838;37.292;2022-08-19T09:43:47;29.45;48.79
71801;HTU21D;59647;55.838;37.292;2022-08-19T09:46:13;29.32;48.22
71801;HTU21D;59647;55.838;37.292;2022-08-19T09:48:40;29.50;47.55
71801;HTU21D;59647;55.838;37.292;2022-08-19T09:51:15;29.77;46.94
71801;HTU21D;59647;55.838;37.292;2022-08-19T09:53:43;29.92;45.33
71801;HTU21D;59647;55.838;37.292;2022-08-19T09:56:10;29.93;45.81
71801;HTU21D;59647;55.838;37.292;2022-08-19T09:58:37;29.72;47.47
71801;HTU21D;59647;55.838;37.292;2022-08-19T10:01:04;29.66;47.74
71801;HTU21D;59647;55.838;37.292;2022-08-19T10:03:31;30.00;47.79
71801;HTU21D;59647;55.838;37.292;2022-08-19T10:06:00;30.02;42.24
71801;HTU21D;59647;55.838;37.292;2022-08-19T10:08:29;30.01;43.53
71801;HTU21D;59647;55.838;37.292;2022-08-19T10:10:56;30.07;38.76
71801;HTU21D;59647;55.838;37.292;2022-08-19T10:13:24;30.09;42.31
71801;HTU21D;59647;55.838;37.292;2022-08-19T10:15:56;30.17;43.32
71801;HTU21D;59647;55.838;37.292;2022-08-19T10:18:23;30.08;41.07
71801;HTU21D;59647;55.838;37.292;2022-08-19T10:20:50;30.16;44.31
71801;HTU21D;59647;55.838;37.292;2022-08-19T10:23:20;30.13;39.61
71801;HTU21D;59647;55.838;37.292;2022-08-19T10:25:49;30.16;40.95
71801;HTU21D;59647;55.838;37.292;2022-08-19T10:28:19;30.06;43.42
71801;HTU21D;59647;55.838;37.292;2022-08-19T10:30:45;29.89;37.42
71801;HTU21D;59647;55.838;37.292;2022-08-19T10:33:12;29.87;36.83
71801;HTU21D;59647;55.838;37.292;2022-08-19T10:35:39;29.86;39.52
71801;HTU21D;59647;55.838;37.292;2022-08-19T10:38:05;29.91;36.14
71801;HTU21D;59647;55.838;37.292;2022-08-19T10:40:30;30.08;35.94
71801;HTU21D;59647;55.838;37.292;2022-08-19T10:42:56;29.97;37.03
71801;HTU21D;59647;55.838;37.292;2022-08-19T10:45:23;30.01;39.33
71801;HTU21D;59647;55.838;37.292;2022-08-19T10:47:52;29.63;34.30
71801;HTU21D;59647;55.838;37.292;2022-08-19T10:50:18;29.32;37.95
71801;HTU21D;59647;55.838;37.292;2022-08-19T10:53:21;29.23;33.21
71801;HTU21D;59647;55.838;37.292;2022-08-19T10:55:50;29.30;38.70
71801;HTU21D;59647;55.838;37.292;2022-08-19T10:58:35;29.63;36.62
71801;HTU21D;59647;55.838;37.292;2022-08-19T11:01:00;29.82;36.76
71801;HTU21D;59647;55.838;37.292;2022-08-19T11:03:26;29.89;36.75
71801;HTU21D;59647;55.838;37.292;2022-08-19T11:06:04;29.81;35.40
71801;HTU21D;59647;55.838;37.292;2022-08-19T11:08:31;29.72;37.20
71801;HTU21D;59647;55.838;37.292;2022-08-19T11:11:00;29.58;36.63
71801;HTU21D;59647;55.838;37.292;2022-08-19T11:13:28;29.61;38.67
71801;HTU21D;59647;55.838;37.292;2022-08-19T11:16:03;29.70;37.35
71801;HTU21D;59647;55.838;37.292;2022-08-19T11:18:30;29.81;37.81
71801;HTU21D;59647;55.838;37.292;2022-08-19T11:21:05;30.01;36.18
71801;HTU21D;59647;55.838;37.292;2022-08-19T11:23:32;30.13;35.43
71801;HTU21D;59647;55.838;37.292;2022-08-19T11:25:57;30.12;27.96
71801;HTU21D;59647;55.838;37.292;2022-08-19T11:28:25;30.11;34.02
71801;HTU21D;59647;55.838;37.292;2022-08-19T11:30:50;29.86;22.24
71801;HTU21D;59647;55.838;37.292;2022-08-19T11:33:16;29.81;26.47
71801;HTU21D;59647;55.838;37.292;2022-08-19T11:35:42;29.89;31.75
71801;HTU21D;59647;55.838;37.292;2022-08-19T11:38:08;29.76;22.32
71801;HTU21D;59647;55.838;37.292;2022-08-19T11:40:33;29.62;26.63
71801;HTU21D;59647;55.838;37.292;2022-08-19T11:42:59;29.49;25.12
71801;HTU21D;59647;55.838;37.292;2022-08-19T11:45:27;29.36;26.74
71801;HTU21D;59647;55.838;37.292;2022-08-19T11:47:53;29.34;24.88
71801;HTU21D;59647;55.838;37.292;2022-08-19T11:50:20;29.35;23.98
71801;HTU21D;59647;55.838;37.292;2022-08-19T11:52:46;29.26;28.25
71801;HTU21D;59647;55.838;37.292;2022-08-19T11:55:13;29.01;24.29
71801;HTU21D;59647;55.838;37.292;2022-08-19T11:57:39;28.92;24.51
71801;HTU21D;59647;55.838;37.292;2022-08-19T12:00:07;28.78;21.41
71801;HTU21D;59647;55.838;37.292;2022-08-19T12:02:33;28.88;28.19
71801;HTU21D;59647;55.838;37.292;2022-08-19T12:04:59;28.75;23.14
71801;HTU21D;59647;55.838;37.292;2022-08-19T12:07:28;28.78;27.64
71801;HTU21D;59647;55.838;37.292;2022-08-19T12:09:57;28.78;25.05
71801;HTU21D;59647;55.838;37.292;2022-08-19T12:12:22;28.90;28.37
71801;HTU21D;59647;55.838;37.292;2022-08-19T12:14:50;29.02;28.18
71801;HTU21D;59647;55.838;37.292;2022-08-19T12:17:26;29.23;28.71
71801;HTU21D;59647;55.838;37.292;2022-08-19T12:19:53;29.23;27.73
71801;HTU21D;59647;55.838;37.292;2022-08-19T12:22:18;29.33;28.73
71801;HTU21D;59647;55.838;37.292;2022-08-19T12:24:45;29.42;27.20
71801;HTU21D;59647;55.838;37.292;2022-08-19T12:27:11;29.49;27.20
71801;HTU21D;59647;55.838;37.292;2022-08-19T12:29:36;29.46;28.36
71801;HTU21D;59647;55.838;37.292;2022-08-19T12:32:02;29.47;28.58
71801;HTU21D;59647;55.838;37.292;2022-08-19T12:34:30;29.44;28.64
71801;HTU21D;59647;55.838;37.292;2022-08-19T12:36:58;29.22;28.61
71801;HTU21D;59647;55.838;37.292;2022-08-19T12:39:24;28.98;27.57
71801;HTU21D;59647;55.838;37.292;2022-08-19T12:41:51;28.99;28.60
71801;HTU21D;59647;55.838;37.292;2022-08-19T12:44:17;29.07;28.84
71801;HTU21D;59647;55.838;37.292;2022-08-19T12:46:43;29.18;28.73
71801;HTU21D;59647;55.838;37.292;2022-08-19T12:49:09;29.39;29.44
71801;HTU21D;59647;55.838;37.292;2022-08-19T12:51:35;29.27;30.22
71801;HTU21D;59647;55.838;37.292;2022-08-19T12:54:02;29.34;30.90
71801;HTU21D;59647;55.838;37.292;2022-08-19T12:56:30;29.33;31.28
71801;HTU21D;59647;55.838;37.292;2022-08-19T12:58:56;29.14;31.81
71801;HTU21D;59647;55.838;37.292;2022-08-19T13:01:22;29.20;32.16
71801;HTU21D;59647;55.838;37.292;2022-08-19T13:03:48;29.20;32.58
71801;HTU21D;59647;55.838;37.292;2022-08-19T13:06:14;29.26;32.27
71801;HTU21D;59647;55.838;37.292;2022-08-19T13:08:40;29.38;32.84
71801;HTU21D;59647;55.838;37.292;2022-08-19T13:11:08;29.47;32.85
71801;HTU21D;59647;55.838;37.292;2022-08-19T13:13:34;29.45;34.02
71801;HTU21D;59647;55.838;37.292;2022-08-19T13:16:01;29.71;33.94
71801;HTU21D;59647;55.838;37.292;2022-08-19T13:18:28;29.82;33.64
71801;HTU21D;59647;55.838;37.292;2022-08-19T13:20:54;29.98;33.34
71801;HTU21D;59647;55.838;37.292;2022-08-19T13:23:20;30.16;33.65
71801;HTU21D;59647;55.838;37.292;2022-08-19T13:25:56;30.30;32.37
71801;HTU21D;59647;55.838;37.292;2022-08-19T13:28:22;30.25;33.35
71801;HTU21D;59647;55.838;37.292;2022-08-19T13:30:47;30.17;33.75
71801;HTU21D;59647;55.838;37.292;2022-08-19T13:33:31;30.25;33.86
71801;HTU21D;59647;55.838;37.292;2022-08-19T13:35:59;30.28;31.64
71801;HTU21D;59647;55.838;37.292;2022-08-19T13:38:26;30.44;34.14
71801;HTU21D;59647;55.838;37.292;2022-08-19T13:40:54;30.53;33.85
71801;HTU21D;59647;55.838;37.292;2022-08-19T13:43:24;30.33;33.62
71801;HTU21D;59647;55.838;37.292;2022-08-19T13:45:52;30.32;33.92
71801;HTU21D;59647;55.838;37.292;2022-08-19T13:48:21;30.48;34.30
71801;HTU21D;59647;55.838;37.292;2022-08-19T13:50:48;30.59;34.50
71801;HTU21D;59647;55.838;37.292;2022-08-19T13:53:14;30.76;34.63
71801;HTU21D;59647;55.838;37.292;2022-08-19T13:55:41;30.72;33.70
71801;HTU21D;59647;55.838;37.292;2022-08-19T13:58:09;30.49;34.09
71801;HTU21D;59647;55.838;37.292;2022-08-19T14:00:41;30.26;32.34
71801;HTU21D;59647;55.838;37.292;2022-08-19T14:03:07;30.05;34.53
71801;HTU21D;59647;55.838;37.292;2022-08-19T14:05:33;29.79;34.32
71801;HTU21D;59647;55.838;37.292;2022-08-19T14:07:59;29.62;34.99
71801;HTU21D;59647;55.838;37.292;2022-08-19T14:10:26;29.46;35.76
71801;HTU21D;59647;55.838;37.292;2022-08-19T14:12:55;29.39;36.04
71801;HTU21D;59647;55.838;37.292;2022-08-19T14:15:21;29.34;36.35
71801;HTU21D;59647;55.838;37.292;2022-08-19T14:17:48;29.33;36.55
71801;HTU21D;59647;55.838;37.292;2022-08-19T14:20:15;29.23;37.02
71801;HTU21D;59647;55.838;37.292;2022-08-19T14:22:42;29.19;36.69
71801;HTU21D;59647;55.838;37.292;2022-08-19T14:27:58;28.94;37.17
71801;HTU21D;59647;55.838;37.292;2022-08-19T14:30:27;28.82;37.77
71801;HTU21D;59647;55.838;37.292;2022-08-19T14:32:54;28.75;37.97
71801;HTU21D;59647;55.838;37.292;2022-08-19T14:35:20;28.64;38.24
71801;HTU21D;59647;55.838;37.292;2022-08-19T14:37:48;28.57;38.32
71801;HTU21D;59647;55.838;37.292;2022-08-19T14:40:17;28.49;38.78
71801;HTU21D;59647;55.838;37.292;2022-08-19T14:42:43;28.44;38.82
71801;HTU21D;59647;55.838;37.292;2022-08-19T14:45:11;28.35;38.54
71801;HTU21D;59647;55.838;37.292;2022-08-19T14:47:37;28.17;38.85
71801;HTU21D;59647;55.838;37.292;2022-08-19T14:50:09;27.95;40.26
71801;HTU21D;59647;55.838;37.292;2022-08-19T14:52:35;27.90;39.94
71801;HTU21D;59647;55.838;37.292;2022-08-19T14:55:01;27.93;39.98
71801;HTU21D;59647;55.838;37.292;2022-08-19T14:57:26;27.88;40.35
71801;HTU21D;59647;55.838;37.292;2022-08-19T14:59:52;27.88;40.30
71801;HTU21D;59647;55.838;37.292;2022-08-19T15:02:18;27.74;40.45
71801;HTU21D;59647;55.838;37.292;2022-08-19T15:04:46;27.53;41.68
71801;HTU21D;59647;55.838;37.292;2022-08-19T15:07:12;27.50;40.88
71801;HTU21D;59647;55.838;37.292;2022-08-19T15:09:38;27.47;41.16
71801;HTU21D;59647;55.838;37.292;2022-08-19T15:12:04;27.42;41.81
71801;HTU21D;59647;55.838;37.292;2022-08-19T15:14:30;27.41;42.09
71801;HTU21D;59647;55.838;37.292;2022-08-19T15:17:01;27.37;42.52
71801;HTU21D;59647;55.838;37.292;2022-08-19T15:19:29;27.34;42.76